Warning: A non-numeric value encountered in /home/portan24/public_html/weather28/metar/wsMetarTxt.php on line 608

Northport NY Webcam more information Northport NY Webcam


Visit our other weather sites:

Template documentation
and downloads

And another site



Nearby METAR Reports

   
EBBR - Brussels International Airport, Belgium
Distance from station: W 9 mi
Updated: Jan 21 2018 3:20 pm
Rain, Mostly Cloudy  
Rain, Mostly Cloudy  
   Wind: SSE 9.2 mph
Wind: SSE 9.2 mph
Temperature: 37.4°F
Wind Chill: 30.2°F
Dew Point: 33.8°F
Humidity: 87%
Barometer: 29.85 inHg
Clouds: Mostly Cloudy
Visibility: 4 mi
Cloud details: Partly Cloudy 244 m,
Mostly Cloudy 853 m
EBBR 212020Z 15008KT 120V180 6000 RA SCT008 BKN028 03/01 Q1011 TEMPO 3500 RASN
EBBE - Beauvechain (Bevekom), Belgium
Distance from station: SSE 10 mi
Updated: Jan 21 2018 2:55 pm
Light Rain, Mostly Cloudy  
Light Rain, Mostly Cloudy  
   Wind: SSE 11.5 mph
Wind: SSE 11.5 mph
Temperature: 37.4°F
Wind Chill: 30.2°F
Dew Point: 33.8°F
Humidity: 87%
Barometer: 29.88 inHg
Clouds: Mostly Cloudy
Visibility: More than 6 mi
Cloud details: Partly Cloudy 335 m,
Mostly Cloudy 488 m,
Mostly Cloudy 884 m
EBBE 211955Z AUTO 16010KT 9999 -RA SCT011/// BKN016/// BKN029/// 03/01 Q1012 GRN
EBDT - Schaffen, Belgium
Distance from station: ENE 18 mi
Updated: Jan 21 2018 3:12 pm
Light Rain, Mostly Cloudy  
Light Rain, Mostly Cloudy  
   Wind: South 13.8 mph
Wind: South 13.8 mph
Temperature: 37.4°F
Wind Chill: 28.4°F
Dew Point: 33.8°F
Humidity: 87%
Barometer: 29.88 inHg
Clouds: Mostly Cloudy
Visibility: More than 6 mi
Cloud details: Few Clouds 457 m,
Partly Cloudy 640 m,
Mostly Cloudy 975 m
EBDT 212012Z AUTO 17012KT 9999 -RA FEW015/// SCT021/// BKN032/// 03/01 Q1012 WHT
EBAW - Antwerp/Deurne, Belgium
Distance from station: NNW 23 mi
Updated: Jan 21 2018 3:20 pm
Light Rain, Mostly Cloudy  
Light Rain, Mostly Cloudy  
   Wind: SSE 12.7 mph
Wind: SSE 12.7 mph
Temperature: 37.4°F
Wind Chill: 28.4°F
Dew Point: 35.6°F
Humidity: 93%
Barometer: 29.85 inHg
Clouds: Mostly Cloudy
Visibility: 4 mi
Cloud details: Partly Cloudy 274 m,
Mostly Cloudy 335 m
EBAW 212020Z 15011KT 7000 -RA SCT009 BKN011 03/02 Q1011 TEMPO 3000 RA BKN009
EBCI - Charleroi/Gosselies, Belgium
Distance from station: SSW 32 mi
Updated: Jan 21 2018 3:20 pm
Light Rain, Drizzle, Mostly Cloudy  
Light Rain, Drizzle, Mostly Cloudy  
   Wind: SSE 13.8 mph
Wind: SSE 13.8 mph
Temperature: 35.6°F
Wind Chill: 26.6°F
Dew Point: 33.8°F
Humidity: 93%
Barometer: 29.83 inHg
Clouds: Mostly Cloudy
Visibility: 4 mi
Cloud details: Mostly Cloudy 305 m,
Mostly Cloudy 732 m
EBCI 212020Z 16012KT 6000 -RADZ BKN010 BKN024 02/01 Q1010 TEMPO 3500 RA
EBLG - Bierset/Liege, Belgium
Distance from station: ESE 38 mi
Updated: Jan 21 2018 3:20 pm
Light Rain, Mostly Cloudy  
Light Rain, Mostly Cloudy  
   Wind: South 15 mph
Wind: South 15 mph
Temperature: 35.6°F
Wind Chill: 26.6°F
Dew Point: 32°F
Humidity: 87%
Barometer: 29.88 inHg
Clouds: Mostly Cloudy
Visibility: More than 6 mi
Cloud details: Partly Cloudy 396 m,
Mostly Cloudy 1067 m
EBLG 212020Z 17013KT 9999 -RA SCT013 BKN035 02/00 Q1012 NOSIG

Script developed by  Saratoga-weather.org Adapted for the template by  Weerstation Leuven

You find our weather info also at:

Weather Underground

AWEKAS

Citizen Weather Observer Program (CWOP)

Equipment we use:

Weather-station
Davis VP2

Davis VP2